Time;durP1;ratioP1;P1;durP2;ratioP2;P2;SDS_P1;SDS_P2;PMS_P1;PMS_P2;Temp;Humidity;BMP_temperature;BMP_pressure;BME280_temperature;BME280_humidity;BME280_pressure;Samples;Min_cycle;Max_cycle;Signal;HPM_P1;HPM_P2
2022/07/17 00:01:56;;;;;;;0.90;0.70;;;;;;;15.62;67.84;101154.16;5095065;28;20449;-51
2022/07/17 00:04:23;;;;;;;0.60;0.43;;;;;;;15.38;68.54;101152.28;5095114;28;20484;-51
2022/07/17 00:06:50;;;;;;;0.50;0.30;;;;;;;15.25;68.96;101156.31;5094936;28;20784;-51
2022/07/17 00:09:16;;;;;;;0.60;0.40;;;;;;;15.33;68.99;101160.47;5093455;28;21008;-52
2022/07/17 00:11:43;;;;;;;0.60;0.37;;;;;;;15.43;69.10;101149.44;5086765;28;20456;-51
2022/07/17 00:14:09;;;;;;;0.63;0.30;;;;;;;15.24;69.84;101157.25;5094457;28;20453;-51
2022/07/17 00:16:36;;;;;;;1.33;0.47;;;;;;;14.85;71.53;101152.28;5095072;28;20453;-51
2022/07/17 00:19:02;;;;;;;0.70;0.70;;;;;;;14.93;70.96;101152.00;5094691;28;20883;-51
2022/07/17 00:21:29;;;;;;;0.60;0.40;;;;;;;14.99;70.77;101150.03;5095226;28;20449;-51
2022/07/17 00:23:56;;;;;;;0.80;0.40;;;;;;;15.19;70.49;101154.69;5081288;28;20455;-51
2022/07/17 00:26:23;;;;;;;2.77;0.67;;;;;;;15.02;71.06;101154.41;5080160;28;20946;-50
2022/07/17 00:28:49;;;;;;;0.60;0.50;;;;;;;14.88;71.42;101156.66;5094099;28;20468;-51
2022/07/17 00:31:16;;;;;;;0.67;0.40;;;;;;;14.58;72.48;101148.69;5092691;28;20465;-50
2022/07/17 00:33:42;;;;;;;5.53;1.10;;;;;;;14.62;72.61;101153.00;5080852;28;20801;-51
2022/07/17 00:36:09;;;;;;;2.70;0.50;;;;;;;14.55;72.70;101154.13;5094758;28;20928;-51
2022/07/17 00:38:35;;;;;;;0.80;0.60;;;;;;;14.54;73.21;101159.53;5094566;28;20540;-51
2022/07/17 00:41:02;;;;;;;0.70;0.60;;;;;;;14.68;72.63;101152.81;5091726;28;20449;-51
2022/07/17 00:43:28;;;;;;;0.60;0.30;;;;;;;14.56;72.68;101155.00;5081248;28;20449;-51
2022/07/17 00:46:04;;;;;;;2.50;0.63;;;;;;;14.39;72.80;101156.38;5094286;28;20456;-51
2022/07/17 00:48:32;;;;;;;0.57;0.50;;;;;;;14.45;73.41;101148.19;5094165;28;20987;-51
2022/07/17 00:50:59;;;;;;;0.50;0.43;;;;;;;14.32;73.22;101151.25;5094312;28;20452;-51
2022/07/17 00:53:27;;;;;;;1.73;0.63;;;;;;;14.41;73.06;101159.88;5094534;28;20488;-51
2022/07/17 00:55:56;;;;;;;1.00;0.70;;;;;;;14.50;72.54;101159.59;5093545;28;20481;-51
2022/07/17 00:58:24;;;;;;;0.50;0.40;;;;;;;14.28;73.20;101149.59;5094252;28;20471;-51
2022/07/17 01:00:53;;;;;;;0.60;0.47;;;;;;;14.18;74.15;101143.63;5094152;28;20451;-51
2022/07/17 01:03:22;;;;;;;0.93;0.40;;;;;;;13.93;74.28;101143.47;5094033;28;20449;-50
2022/07/17 01:05:49;;;;;;;0.50;0.40;;;;;;;13.87;74.33;101146.31;5092500;28;20498;-51
2022/07/17 01:08:15;;;;;;;0.87;0.87;;;;;;;13.83;75.00;101149.97;5093852;28;20473;-50
2022/07/17 01:10:42;;;;;;;0.70;0.60;;;;;;;14.02;73.78;101145.88;5084324;28;20453;-51
2022/07/17 01:13:09;;;;;;;0.53;0.37;;;;;;;13.91;75.00;101148.84;5093940;28;20455;-51
2022/07/17 01:15:38;;;;;;;0.70;0.50;;;;;;;13.74;75.90;101144.91;5093664;28;20492;-51
2022/07/17 01:18:11;;;;;;;0.70;0.60;;;;;;;13.83;75.05;101148.19;5093535;28;20479;-51
2022/07/17 01:20:39;;;;;;;1.37;1.00;;;;;;;13.72;76.02;101155.66;5093420;28;20528;-50
2022/07/17 01:23:06;;;;;;;0.70;0.63;;;;;;;13.56;76.25;101148.94;5093496;28;20459;-50
2022/07/17 01:25:33;;;;;;;0.70;0.53;;;;;;;13.55;76.53;101149.88;5087281;28;20521;-50
2022/07/17 01:28:00;;;;;;;2.40;0.53;;;;;;;13.51;76.56;101150.88;5086628;28;20580;-51
2022/07/17 01:30:27;;;;;;;0.43;0.30;;;;;;;13.44;76.79;101141.28;5093255;28;20463;-50
2022/07/17 01:32:54;;;;;;;3.27;0.77;;;;;;;13.38;77.22;101141.44;5091270;28;20463;-51
2022/07/17 01:35:21;;;;;;;1.53;0.60;;;;;;;13.47;76.76;101149.22;5079541;28;20481;-50
2022/07/17 01:37:48;;;;;;;1.47;0.80;;;;;;;13.49;76.77;101140.22;5093444;28;20487;-50
2022/07/17 01:40:16;;;;;;;2.33;0.50;;;;;;;13.40;77.03;101148.47;5079991;28;20449;-50
2022/07/17 01:42:46;;;;;;;12.47;0.73;;;;;;;13.36;76.87;101151.28;5092791;28;20946;-50
2022/07/17 01:45:14;;;;;;;1.33;0.60;;;;;;;13.39;77.29;101151.19;5093200;28;20445;-51
2022/07/17 01:47:42;;;;;;;0.80;0.50;;;;;;;13.45;77.24;101146.59;5093026;28;20472;-50
2022/07/17 01:50:11;;;;;;;0.97;0.63;;;;;;;13.37;76.74;101153.03;5093396;28;20456;-50
2022/07/17 01:52:40;;;;;;;3.80;0.90;;;;;;;13.24;77.33;101149.81;5093095;28;20467;-50
2022/07/17 01:55:08;;;;;;;0.63;0.63;;;;;;;13.30;77.38;101155.88;5092995;28;20484;-50
2022/07/17 01:57:35;;;;;;;24.43;0.70;;;;;;;13.12;78.35;101148.28;5092546;28;20473;-50
2022/07/17 02:00:08;;;;;;;5.90;1.77;;;;;;;13.13;78.02;101152.69;5092803;28;20940;-50
2022/07/17 02:02:34;;;;;;;0.77;0.60;;;;;;;13.20;77.40;101156.16;5092624;28;20445;-50
2022/07/17 02:05:01;;;;;;;1.63;0.70;;;;;;;13.11;79.29;101151.00;5092973;28;20451;-51
2022/07/17 02:07:28;;;;;;;3.63;0.60;;;;;;;13.16;78.80;101152.66;5092387;28;20449;-50
2022/07/17 02:09:54;;;;;;;0.80;0.80;;;;;;;12.82;79.70;101149.91;5086409;28;20552;-50
2022/07/17 02:12:20;;;;;;;0.50;0.40;;;;;;;12.82;79.89;101154.38;5090218;28;20544;-50
2022/07/17 02:14:47;;;;;;;5.17;0.50;;;;;;;12.85;80.14;101146.28;5092586;28;20493;-50
2022/07/17 02:17:13;;;;;;;1.00;0.43;;;;;;;12.58;80.54;101153.16;5092573;28;20441;-50
2022/07/17 02:19:40;;;;;;;1.20;0.87;;;;;;;12.51;81.49;101149.78;5092451;28;20449;-50
2022/07/17 02:22:07;;;;;;;2.73;0.50;;;;;;;12.67;80.85;101152.94;5092476;28;20449;-50
2022/07/17 02:24:33;;;;;;;0.43;0.30;;;;;;;12.79;79.93;101152.66;5092577;28;20473;-50
2022/07/17 02:27:00;;;;;;;10.13;0.80;;;;;;;12.64;80.56;101150.38;5079466;28;20449;-51
2022/07/17 02:29:26;;;;;;;0.70;0.40;;;;;;;12.65;80.63;101150.31;5092323;28;20468;-50
2022/07/17 02:31:53;;;;;;;3.67;0.87;;;;;;;12.73;80.11;101137.66;5090137;28;20471;-51
2022/07/17 02:34:19;;;;;;;0.73;0.67;;;;;;;12.65;80.18;101152.13;5091811;28;20457;-51
2022/07/17 02:36:46;;;;;;;0.50;0.50;;;;;;;12.62;80.34;101154.88;5092246;28;20489;-51
2022/07/17 02:39:12;;;;;;;1.90;0.57;;;;;;;12.58;80.43;101153.16;5091628;28;20465;-51
2022/07/17 02:41:39;;;;;;;3.23;0.50;;;;;;;12.83;80.01;101148.13;5090832;28;20456;-51
2022/07/17 02:44:05;;;;;;;0.60;0.50;;;;;;;12.71;80.09;101152.84;5092068;28;20455;-50
2022/07/17 02:46:32;;;;;;;0.50;0.40;;;;;;;12.52;81.48;101153.31;5091983;28;20456;-51
2022/07/17 02:48:58;;;;;;;5.17;0.80;;;;;;;12.44;81.84;101161.47;5092904;28;20569;-51
2022/07/17 02:51:25;;;;;;;0.80;0.60;;;;;;;12.53;81.56;101153.28;5092225;28;20453;-50
2022/07/17 02:53:51;;;;;;;3.63;0.73;;;;;;;12.28;82.26;101146.72;5092311;28;20444;-51
2022/07/17 02:56:18;;;;;;;0.47;0.30;;;;;;;12.38;82.14;101148.28;5091847;28;20564;-51
2022/07/17 02:58:44;;;;;;;10.83;0.67;;;;;;;12.37;81.97;101155.41;5091906;28;20468;-50
2022/07/17 03:01:11;;;;;;;8.83;1.23;;;;;;;12.29;82.47;101153.81;5091794;28;20445;-51
2022/07/17 03:03:37;;;;;;;0.57;0.50;;;;;;;12.06;83.57;101156.94;5092079;28;20460;-51
2022/07/17 03:06:04;;;;;;;0.63;0.43;;;;;;;12.16;82.97;101153.19;5092058;28;20449;-50
2022/07/17 03:08:30;;;;;;;0.63;0.63;;;;;;;11.92;83.93;101148.38;5091700;28;20473;-51
2022/07/17 03:10:57;;;;;;;0.70;0.30;;;;;;;12.11;83.60;101155.09;5082452;28;20449;-51
2022/07/17 03:13:23;;;;;;;1.30;1.20;;;;;;;12.00;83.66;101163.28;5091825;28;20949;-51
2022/07/17 03:15:50;;;;;;;7.40;0.90;;;;;;;11.87;84.19;101159.13;5091995;28;20493;-51
2022/07/17 03:18:17;;;;;;;0.70;0.50;;;;;;;11.79;84.33;101161.97;5091737;28;20469;-50
2022/07/17 03:20:43;;;;;;;7.63;0.63;;;;;;;11.75;84.44;101165.53;5092027;28;20445;-51
2022/07/17 03:23:10;;;;;;;0.90;0.80;;;;;;;11.80;84.66;101161.03;5091590;28;20445;-51
2022/07/17 03:25:37;;;;;;;1.27;0.83;;;;;;;11.80;84.10;101169.03;5071859;28;20450;-52
2022/07/17 03:28:03;;;;;;;0.63;0.63;;;;;;;11.72;84.59;101162.94;5071733;28;20462;-51
2022/07/17 03:30:30;;;;;;;0.77;0.50;;;;;;;11.92;84.64;101161.69;5071498;28;20465;-52
2022/07/17 03:32:56;;;;;;;1.43;0.40;;;;;;;11.84;85.12;101161.84;5071307;28;20460;-51
2022/07/17 03:35:23;;;;;;;0.70;0.50;;;;;;;12.06;84.60;101159.63;5071787;28;20492;-51
2022/07/17 03:37:49;;;;;;;3.73;0.50;;;;;;;11.91;84.34;101158.13;5071777;28;20474;-51
2022/07/17 03:40:16;;;;;;;12.43;1.00;;;;;;;11.77;84.76;101163.72;5071619;28;20452;-51
2022/07/17 03:42:43;;;;;;;1.00;0.83;;;;;;;11.71;85.56;101171.84;5071400;28;20885;-51
2022/07/17 03:45:09;;;;;;;0.70;0.50;;;;;;;11.70;85.54;101158.56;5071616;28;20446;-52
2022/07/17 03:47:36;;;;;;;0.60;0.60;;;;;;;11.78;85.83;101168.13;5074752;28;20476;-51
2022/07/17 03:50:03;;;;;;;0.73;0.67;;;;;;;11.83;85.94;101170.75;5075127;28;20463;-50
2022/07/17 03:52:29;;;;;;;0.60;0.40;;;;;;;11.87;85.62;101175.09;5075078;28;20540;-51
2022/07/17 03:54:56;;;;;;;3.23;0.50;;;;;;;11.82;85.75;101169.00;5082358;28;20460;-50
2022/07/17 03:57:22;;;;;;;2.33;0.50;;;;;;;11.98;85.09;101169.56;5095248;28;20453;-50
2022/07/17 03:59:49;;;;;;;1.37;0.70;;;;;;;11.86;85.55;101162.69;5095374;28;20453;-51
2022/07/17 04:02:15;;;;;;;1.60;1.50;;;;;;;11.79;85.95;101164.63;5095184;28;20536;-51
2022/07/17 04:04:42;;;;;;;0.57;0.40;;;;;;;11.57;88.66;101169.44;5095226;28;20487;-51
2022/07/17 04:07:26;;;;;;;4.97;1.23;;;;;;;11.52;88.07;101167.78;5094831;28;20529;-51
2022/07/17 04:09:59;;;;;;;1.33;0.50;;;;;;;11.72;87.50;101170.03;5088502;28;20524;-51
2022/07/17 04:12:27;;;;;;;0.60;0.60;;;;;;;11.81;87.27;101162.81;5092706;28;20959;-51
2022/07/17 04:14:54;;;;;;;0.60;0.50;;;;;;;11.77;87.07;101168.16;5095004;28;20460;-52
2022/07/17 04:17:21;;;;;;;18.63;2.50;;;;;;;11.87;86.55;101169.78;5094707;28;20488;-50
2022/07/17 04:19:48;;;;;;;0.60;0.50;;;;;;;11.65;88.26;101171.97;5094680;28;20445;-50
2022/07/17 04:22:15;;;;;;;0.60;0.50;;;;;;;11.67;89.41;101172.81;5094699;28;20448;-51
2022/07/17 04:24:41;;;;;;;0.50;0.40;;;;;;;12.09;87.63;101171.13;5094985;28;20437;-51
2022/07/17 04:27:09;;;;;;;10.20;0.90;;;;;;;12.09;87.63;101167.56;5094523;28;20445;-52
2022/07/17 04:29:36;;;;;;;0.70;0.70;;;;;;;12.16;87.12;101177.19;5094620;28;20524;-51
2022/07/17 04:32:02;;;;;;;0.77;0.70;;;;;;;12.43;86.28;101178.38;5092913;28;20457;-52
2022/07/17 04:34:29;;;;;;;0.57;0.40;;;;;;;12.37;85.88;101179.41;5094664;28;20792;-50
2022/07/17 04:36:56;;;;;;;1.73;0.63;;;;;;;12.32;86.55;101175.94;5073891;28;21010;-51
2022/07/17 04:39:23;;;;;;;0.67;0.40;;;;;;;12.42;86.49;101173.97;5074208;28;20470;-50
2022/07/17 04:41:50;;;;;;;0.50;0.43;;;;;;;12.83;85.97;101169.47;5074354;28;20450;-52
2022/07/17 04:44:18;;;;;;;0.60;0.50;;;;;;;13.75;81.85;101182.28;5074309;28;20446;-51
2022/07/17 04:46:45;;;;;;;0.87;0.50;;;;;;;14.40;77.99;101182.19;5074032;28;20936;-52
2022/07/17 04:49:12;;;;;;;0.70;0.70;;;;;;;15.51;73.90;101187.59;5073661;28;20465;-51
2022/07/17 04:51:38;;;;;;;1.10;0.40;;;;;;;16.23;70.63;101184.06;5074082;28;20460;-52
2022/07/17 04:54:05;;;;;;;1.90;0.80;;;;;;;16.76;68.35;101189.22;5073791;28;20959;-51
2022/07/17 04:56:31;;;;;;;0.70;0.70;;;;;;;17.20;66.99;101191.91;5074093;28;20489;-52
2022/07/17 04:58:58;;;;;;;0.50;0.40;;;;;;;17.52;65.20;101197.72;5073479;28;20465;-52
2022/07/17 05:01:24;;;;;;;1.10;0.70;;;;;;;17.59;65.01;101200.09;5074395;28;20453;-51
2022/07/17 05:03:51;;;;;;;2.10;0.77;;;;;;;17.78;64.57;101202.88;5073266;28;20566;-51
2022/07/17 05:06:18;;;;;;;0.60;0.40;;;;;;;18.11;62.94;101213.13;5073956;28;20454;-52
2022/07/17 05:08:44;;;;;;;2.20;1.37;;;;;;;18.15;62.72;101209.34;5073741;28;20838;-52
2022/07/17 05:11:10;;;;;;;0.70;0.60;;;;;;;18.33;62.28;101212.06;5073652;28;20460;-52
2022/07/17 05:13:37;;;;;;;0.70;0.60;;;;;;;18.51;61.78;101210.34;5074274;28;20848;-52
2022/07/17 05:16:04;;;;;;;1.40;1.30;;;;;;;18.68;61.43;101216.78;5079993;28;20493;-52
2022/07/17 05:18:31;;;;;;;0.90;0.60;;;;;;;19.03;60.01;101225.84;5089217;28;20468;-52
2022/07/17 05:20:57;;;;;;;2.30;0.73;;;;;;;19.18;59.11;101220.59;5093500;28;20445;-52
2022/07/17 05:23:23;;;;;;;3.60;0.93;;;;;;;19.12;59.45;101225.44;5093527;28;20452;-52
2022/07/17 05:25:50;;;;;;;5.30;0.40;;;;;;;19.33;58.86;101221.69;5085131;28;20545;-51
2022/07/17 05:28:16;;;;;;;14.63;1.13;;;;;;;19.42;58.38;101225.72;5088403;28;20564;-52
2022/07/17 05:30:43;;;;;;;3.63;0.60;;;;;;;19.60;57.59;101224.84;5093305;28;20946;-52
2022/07/17 05:33:09;;;;;;;1.33;0.70;;;;;;;19.48;58.31;101237.09;5091366;28;20461;-52
2022/07/17 05:35:36;;;;;;;0.70;0.40;;;;;;;19.66;57.38;101240.69;5093479;28;20449;-52
2022/07/17 05:38:02;;;;;;;0.63;0.63;;;;;;;20.04;57.18;101245.94;5092929;28;21001;-52
2022/07/17 05:40:29;;;;;;;0.90;0.80;;;;;;;19.80;57.48;101242.69;5090540;28;20445;-52
2022/07/17 05:42:58;;;;;;;1.23;0.90;;;;;;;20.03;56.49;101242.38;5093083;28;20441;-51
2022/07/17 05:45:24;;;;;;;0.90;0.60;;;;;;;20.36;55.79;101244.22;5093410;28;20449;-52
2022/07/17 05:47:50;;;;;;;2.33;0.50;;;;;;;20.53;55.17;101246.03;5093012;28;20495;-52
2022/07/17 05:50:17;;;;;;;3.50;1.93;;;;;;;20.53;55.03;101241.50;5093203;28;20824;-52
2022/07/17 05:52:43;;;;;;;2.60;0.77;;;;;;;20.67;54.25;101230.81;5093265;28;20445;-52
2022/07/17 05:55:10;;;;;;;1.43;1.33;;;;;;;20.54;54.76;101243.25;5093126;28;20942;-51
2022/07/17 05:57:36;;;;;;;0.50;0.40;;;;;;;20.87;53.97;101235.13;5092849;28;20492;-52
2022/07/17 06:00:04;;;;;;;7.50;0.70;;;;;;;21.70;52.12;101230.34;5093109;28;20459;-51
2022/07/17 06:02:30;;;;;;;0.80;0.63;;;;;;;21.05;52.91;101232.31;5092887;28;20449;-52
2022/07/17 06:04:57;;;;;;;3.00;1.03;;;;;;;21.14;53.60;101235.38;5093225;28;20449;-52
2022/07/17 06:07:23;;;;;;;1.73;1.17;;;;;;;20.67;53.98;101233.50;5092560;28;21152;-51
2022/07/17 06:09:49;;;;;;;3.17;1.00;;;;;;;21.08;53.58;101224.91;5085875;28;20450;-52
2022/07/17 06:12:16;;;;;;;1.63;1.10;;;;;;;21.57;52.30;101220.25;5088993;28;20457;-52
2022/07/17 06:14:42;;;;;;;0.73;0.60;;;;;;;20.97;53.83;101222.84;5092578;28;20452;-52
2022/07/17 06:17:09;;;;;;;10.97;1.33;;;;;;;21.05;54.34;101216.97;5092582;28;20488;-51
2022/07/17 06:19:35;;;;;;;8.20;1.07;;;;;;;20.95;54.53;101223.84;5092436;28;20472;-52
2022/07/17 06:22:02;;;;;;;1.43;0.73;;;;;;;21.24;54.13;101222.19;5092254;28;20459;-51
2022/07/17 06:24:28;;;;;;;2.30;0.83;;;;;;;21.96;52.47;101224.22;5092599;28;20475;-52
2022/07/17 06:26:55;;;;;;;0.67;0.40;;;;;;;21.82;52.30;101225.06;5078332;28;20930;-52
2022/07/17 06:29:21;;;;;;;1.17;0.60;;;;;;;21.55;52.96;101227.59;5092498;28;20882;-52
2022/07/17 06:31:47;;;;;;;0.83;0.70;;;;;;;21.66;52.94;101220.69;5090051;28;20465;-51
2022/07/17 06:34:14;;;;;;;2.20;0.60;;;;;;;21.70;52.08;101224.94;5092647;28;20459;-51
2022/07/17 06:36:40;;;;;;;0.87;0.87;;;;;;;21.61;52.47;101223.63;5092122;28;20507;-52
2022/07/17 06:39:07;;;;;;;3.60;0.80;;;;;;;21.93;51.62;101216.31;5092235;28;20469;-52
2022/07/17 06:41:33;;;;;;;1.10;0.70;;;;;;;21.57;53.24;101211.25;5071929;28;20468;-52
2022/07/17 06:44:00;;;;;;;1.43;1.03;;;;;;;21.69;51.93;101215.06;5071992;28;20840;-52
2022/07/17 06:46:26;;;;;;;7.93;1.47;;;;;;;22.22;50.75;101219.09;5072020;28;20446;-52
2022/07/17 06:48:53;;;;;;;0.70;0.67;;;;;;;21.98;51.44;101214.16;5071984;28;20478;-52
2022/07/17 06:51:19;;;;;;;1.90;0.93;;;;;;;22.65;50.37;101218.09;5072101;28;20442;-52
2022/07/17 06:53:46;;;;;;;1.10;0.57;;;;;;;22.76;49.47;101212.88;5071987;28;20450;-52
2022/07/17 06:56:12;;;;;;;1.10;0.50;;;;;;;22.86;49.28;101212.28;5071722;28;20489;-53
2022/07/17 06:58:39;;;;;;;1.07;0.90;;;;;;;23.41;48.36;101208.63;5071654;28;20476;-51
2022/07/17 07:01:05;;;;;;;1.70;0.63;;;;;;;23.03;47.96;101214.78;5072041;28;20934;-52
2022/07/17 07:03:32;;;;;;;10.13;0.97;;;;;;;23.26;48.60;101205.97;5071895;28;20829;-51
2022/07/17 07:05:59;;;;;;;3.90;0.70;;;;;;;23.37;48.71;101212.53;5072191;28;20494;-53
2022/07/17 07:08:25;;;;;;;2.70;0.60;;;;;;;23.40;48.26;101205.03;5071772;28;20469;-52
2022/07/17 07:10:52;;;;;;;12.90;1.40;;;;;;;23.37;47.88;101213.41;5071980;28;20449;-53
2022/07/17 07:13:18;;;;;;;1.63;0.60;;;;;;;23.53;48.59;101214.09;5072285;28;20457;-53
2022/07/17 07:15:45;;;;;;;1.40;1.30;;;;;;;23.20;48.31;101210.97;5071798;28;20824;-53
2022/07/17 07:18:11;;;;;;;0.60;0.40;;;;;;;23.44;47.78;101208.44;5071778;28;20466;-51
2022/07/17 07:20:38;;;;;;;0.50;0.30;;;;;;;23.77;46.93;101208.88;5071841;28;20446;-52
2022/07/17 07:23:05;;;;;;;1.00;0.60;;;;;;;23.98;46.36;101216.50;5075398;28;20456;-52
2022/07/17 07:25:33;;;;;;;2.57;1.27;;;;;;;23.90;46.15;101207.06;5089484;28;20446;-52
2022/07/17 07:28:01;;;;;;;18.33;0.70;;;;;;;24.38;44.55;101218.16;5088510;28;20909;-52
2022/07/17 07:30:28;;;;;;;0.70;0.47;;;;;;;23.94;44.76;101208.56;5095742;28;20463;-52
2022/07/17 07:32:54;;;;;;;0.60;0.53;;;;;;;24.06;44.59;101209.56;5094003;28;20457;-52
2022/07/17 07:35:21;;;;;;;1.23;1.13;;;;;;;24.15;45.06;101200.78;5082549;28;20459;-52
2022/07/17 07:37:47;;;;;;;1.07;0.67;;;;;;;24.12;43.85;101205.53;5095344;28;20496;-52
2022/07/17 07:40:14;;;;;;;0.63;0.50;;;;;;;24.22;44.66;101199.34;5093763;28;20451;-52
2022/07/17 07:42:41;;;;;;;4.10;0.93;;;;;;;24.32;42.15;101201.44;5095577;28;20463;-52
2022/07/17 07:45:08;;;;;;;0.67;0.43;;;;;;;24.39;40.24;101202.72;5095768;28;20445;-52
2022/07/17 07:47:46;;;;;;;1.80;0.43;;;;;;;24.79;40.16;101201.56;5095425;28;20936;-52
2022/07/17 07:50:14;;;;;;;2.20;0.70;;;;;;;24.43;40.77;101199.72;5095393;28;20480;-52
2022/07/17 07:52:41;;;;;;;0.77;0.50;;;;;;;24.67;40.48;101202.50;5081835;28;21080;-52
2022/07/17 07:55:09;;;;;;;1.50;0.70;;;;;;;24.73;39.59;101204.75;5085646;28;20452;-52
2022/07/17 07:57:44;;;;;;;0.63;0.47;;;;;;;24.89;39.63;101199.06;5092715;28;20567;-53
2022/07/17 08:00:11;;;;;;;0.97;0.50;;;;;;;24.97;39.26;101191.22;5095532;28;20449;-52
2022/07/17 08:02:39;;;;;;;0.50;0.30;;;;;;;24.77;38.74;101181.78;5095098;28;20445;-53
2022/07/17 08:05:06;;;;;;;0.60;0.60;;;;;;;24.88;38.45;101189.16;5095074;28;20479;-52
2022/07/17 08:07:36;;;;;;;0.60;0.30;;;;;;;24.45;39.11;101203.19;5094897;28;20540;-52
2022/07/17 08:10:04;;;;;;;1.03;0.70;;;;;;;24.72;39.39;101200.31;5087588;28;20472;-52
2022/07/17 08:12:30;;;;;;;7.13;0.43;;;;;;;24.86;38.35;101202.00;5094324;28;20567;-53
2022/07/17 08:15:18;;;;;;;0.60;0.40;;;;;;;25.26;38.00;101199.94;5094805;28;21004;-52
2022/07/17 08:17:45;;;;;;;4.80;0.73;;;;;;;24.88;38.51;101200.03;5093765;28;20496;-52
2022/07/17 08:20:13;;;;;;;0.60;0.50;;;;;;;25.04;37.03;101194.38;5094942;28;20448;-53
2022/07/17 08:22:44;;;;;;;0.73;0.37;;;;;;;25.08;37.55;101191.31;5094902;28;20464;-52
2022/07/17 08:25:32;;;;;;;0.60;0.30;;;;;;;24.92;37.25;101196.09;5088554;28;20796;-53
2022/07/17 08:27:59;;;;;;;2.70;0.93;;;;;;;25.12;36.97;101194.66;5087813;28;20568;-53
2022/07/17 08:30:26;;;;;;;4.50;0.80;;;;;;;25.27;36.62;101193.50;5081187;28;20464;-53
2022/07/17 08:32:53;;;;;;;1.23;1.13;;;;;;;25.03;37.28;101185.34;5091898;28;20457;-52
2022/07/17 08:35:19;;;;;;;0.70;0.50;;;;;;;25.10;37.68;101180.31;5095006;28;20539;-52
2022/07/17 08:37:52;;;;;;;0.60;0.50;;;;;;;25.15;36.82;101179.97;5094180;28;21008;-51
2022/07/17 08:40:23;;;;;;;1.63;0.90;;;;;;;25.23;36.27;101170.25;5092263;28;20455;-52
2022/07/17 08:42:51;;;;;;;5.23;1.10;;;;;;;25.29;36.01;101175.19;5094455;28;20476;-52
2022/07/17 08:45:18;;;;;;;0.50;0.30;;;;;;;25.80;36.00;101168.63;5094300;28;20942;-53
2022/07/17 08:47:45;;;;;;;0.60;0.40;;;;;;;25.45;36.20;101164.00;5094135;28;20501;-52
2022/07/17 08:50:12;;;;;;;2.60;0.50;;;;;;;25.43;36.27;101168.69;5094867;28;20822;-52
2022/07/17 08:52:41;;;;;;;1.00;0.63;;;;;;;25.94;35.92;101158.38;5094003;28;20491;-52
2022/07/17 08:55:13;;;;;;;1.03;0.77;;;;;;;25.51;35.86;101169.00;5094181;28;20452;-52
2022/07/17 08:57:42;;;;;;;1.60;0.70;;;;;;;25.26;35.94;101164.56;5093617;28;20560;-53
2022/07/17 09:00:15;;;;;;;0.73;0.50;;;;;;;25.78;35.48;101156.97;5094423;28;20447;-53
2022/07/17 09:02:57;;;;;;;1.80;0.73;;;;;;;25.90;35.27;101167.75;5094423;28;20445;-53
2022/07/17 09:05:26;;;;;;;0.73;0.43;;;;;;;25.71;34.91;101164.75;5093764;28;20494;-51
2022/07/17 09:07:53;;;;;;;1.17;0.73;;;;;;;25.72;35.14;101157.44;5093846;28;20986;-52
2022/07/17 09:10:40;;;;;;;0.50;0.33;;;;;;;26.32;35.50;101156.31;5084385;28;20468;-53
2022/07/17 09:13:21;;;;;;;2.40;0.83;;;;;;;26.36;34.64;101152.34;5093844;28;20449;-53
2022/07/17 09:15:50;;;;;;;1.60;0.53;;;;;;;26.34;34.96;101159.78;5093839;28;20463;-53
2022/07/17 09:18:18;;;;;;;40.20;0.87;;;;;;;25.99;34.90;101164.31;5093560;28;20489;-52
2022/07/17 09:20:51;;;;;;;1.07;0.70;;;;;;;26.14;35.16;101158.63;5093810;28;20445;-52
2022/07/17 09:23:19;;;;;;;0.70;0.43;;;;;;;26.06;35.16;101156.53;5093626;28;20451;-53
2022/07/17 09:25:50;;;;;;;3.37;0.60;;;;;;;26.51;34.40;101146.53;5085731;28;21000;-53
2022/07/17 09:28:17;;;;;;;1.17;0.40;;;;;;;26.39;34.21;101152.09;5088463;28;20463;-52
2022/07/17 09:30:47;;;;;;;0.70;0.50;;;;;;;25.65;34.73;101155.19;5093229;28;20465;-52
2022/07/17 09:33:18;;;;;;;0.70;0.70;;;;;;;26.13;35.09;101152.31;5091931;28;20453;-51
2022/07/17 09:35:46;;;;;;;2.60;0.60;;;;;;;26.11;34.99;101154.28;5093356;28;20833;-51
2022/07/17 09:38:24;;;;;;;0.60;0.33;;;;;;;25.77;35.09;101155.22;5093123;28;20492;-52
2022/07/17 09:41:12;;;;;;;25.97;1.70;;;;;;;26.13;34.64;101156.91;5091118;28;20441;-52
2022/07/17 09:43:57;;;;;;;1.10;0.67;;;;;;;26.68;34.04;101155.19;5093211;28;20441;-52
2022/07/17 09:46:36;;;;;;;1.70;0.97;;;;;;;27.35;33.57;101147.69;5093026;28;20956;-52
2022/07/17 09:49:07;;;;;;;0.83;0.40;;;;;;;26.46;34.25;101156.09;5092812;28;20476;-52
2022/07/17 09:51:37;;;;;;;3.83;0.67;;;;;;;26.86;33.90;101154.53;5080382;28;20452;-52
2022/07/17 09:54:06;;;;;;;2.00;0.60;;;;;;;26.53;33.98;101155.44;5092767;28;20437;-51
2022/07/17 09:56:35;;;;;;;1.67;0.83;;;;;;;26.21;34.37;101149.84;5093179;28;20547;-52
2022/07/17 09:59:11;;;;;;;0.70;0.57;;;;;;;25.75;34.38;101152.59;5092789;28;20483;-52
2022/07/17 10:01:43;;;;;;;3.53;1.10;;;;;;;26.50;33.87;101150.25;5092629;28;20449;-52
2022/07/17 10:04:11;;;;;;;3.23;0.93;;;;;;;26.88;32.96;101148.09;5088796;28;20441;-53
2022/07/17 10:06:39;;;;;;;0.80;0.57;;;;;;;27.28;32.72;101156.56;5083625;28;20946;-53
2022/07/17 10:09:05;;;;;;;12.70;0.83;;;;;;;26.46;33.13;101153.34;5092625;28;20472;-53
2022/07/17 10:11:41;;;;;;;0.80;0.70;;;;;;;27.34;32.07;101164.22;5083818;28;20453;-53
2022/07/17 10:14:15;;;;;;;0.70;0.40;;;;;;;27.10;30.83;101162.56;5092947;28;20452;-53
2022/07/17 10:16:42;;;;;;;0.53;0.40;;;;;;;27.03;30.57;101163.22;5092806;28;20499;-53
2022/07/17 10:19:19;;;;;;;1.43;0.50;;;;;;;27.82;29.99;101164.59;5079107;28;20924;-53
2022/07/17 10:21:53;;;;;;;0.93;0.40;;;;;;;26.61;31.68;101153.97;5092402;28;20445;-53
2022/07/17 10:24:20;;;;;;;0.80;0.40;;;;;;;27.47;31.48;101153.97;5092590;28;20448;-53
2022/07/17 10:26:49;;;;;;;1.33;0.43;;;;;;;27.15;31.32;101154.84;5078744;28;20455;-52
2022/07/17 10:29:36;;;;;;;1.33;0.57;;;;;;;26.77;31.03;101160.75;5092593;28;20927;-52
2022/07/17 10:32:17;;;;;;;1.57;1.23;;;;;;;27.38;30.69;101152.88;5073986;28;20549;-53
2022/07/17 10:34:47;;;;;;;0.60;0.40;;;;;;;27.12;30.79;101154.22;5087530;28;20507;-52
2022/07/17 10:37:36;;;;;;;1.57;0.60;;;;;;;26.83;30.78;101160.22;5092329;28;20488;-52
2022/07/17 10:40:06;;;;;;;0.70;0.67;;;;;;;27.58;30.82;101156.66;5070941;28;20503;-53
2022/07/17 10:42:56;;;;;;;0.70;0.50;;;;;;;27.07;30.81;101154.63;5079749;28;20445;-53
2022/07/17 10:45:35;;;;;;;0.70;0.40;;;;;;;27.49;29.81;101153.84;5081000;28;20441;-53
2022/07/17 10:48:03;;;;;;;0.93;0.83;;;;;;;27.57;29.51;101154.06;5092196;28;20540;-53
2022/07/17 10:50:35;;;;;;;0.67;0.47;;;;;;;27.98;30.36;101162.28;5080771;28;20951;-53
2022/07/17 10:53:06;;;;;;;0.57;0.40;;;;;;;27.91;28.12;101163.81;5090841;28;20445;-52
2022/07/17 10:55:35;;;;;;;0.70;0.40;;;;;;;27.97;28.95;101154.22;5091774;28;20437;-53
2022/07/17 10:58:02;;;;;;;1.57;0.63;;;;;;;28.13;27.95;101157.34;5091920;28;20489;-53
2022/07/17 11:00:30;;;;;;;1.50;1.10;;;;;;;28.77;27.13;101153.41;5092335;28;20582;-53
2022/07/17 11:03:08;;;;;;;0.53;0.30;;;;;;;29.13;26.75;101154.69;5091493;28;20942;-53
2022/07/17 11:05:34;;;;;;;0.67;0.43;;;;;;;28.34;27.26;101154.56;5092107;28;20862;-53
2022/07/17 11:08:06;;;;;;;3.50;0.50;;;;;;;28.06;28.14;101152.53;5091726;28;20843;-53
2022/07/17 11:10:32;;;;;;;9.63;0.60;;;;;;;27.34;29.14;101156.88;5082326;28;20464;-52
2022/07/17 11:13:14;;;;;;;0.50;0.40;;;;;;;27.37;29.06;101161.22;5092158;28;20459;-53
2022/07/17 11:15:47;;;;;;;1.10;0.50;;;;;;;27.51;29.89;101154.56;5091967;28;20471;-53
2022/07/17 11:18:17;;;;;;;0.60;0.40;;;;;;;27.99;28.91;101144.03;5091988;28;20861;-52
2022/07/17 11:20:55;;;;;;;0.87;0.60;;;;;;;28.02;27.97;101151.94;5091650;28;20445;-53
2022/07/17 11:23:24;;;;;;;1.30;0.97;;;;;;;28.32;28.45;101151.97;5091732;28;20453;-54
2022/07/17 11:26:09;;;;;;;2.60;0.67;;;;;;;28.31;27.15;101144.78;5083158;28;20453;-54
2022/07/17 11:28:42;;;;;;;1.57;1.03;;;;;;;28.42;27.38;101143.81;5089373;28;20464;-53
2022/07/17 11:31:24;;;;;;;3.23;0.47;;;;;;;27.84;28.99;101148.09;5091030;28;20459;-53